createdAt,value
2018-12-08T00:00:38.761Z,0.70
2018-12-08T00:03:05.476Z,1.03
2018-12-08T00:05:31.470Z,0.37
2018-12-08T00:07:57.446Z,0.60
2018-12-08T00:10:24.180Z,0.80
2018-12-08T00:12:50.887Z,0.50
2018-12-08T00:15:16.985Z,0.63
2018-12-08T00:17:42.907Z,0.60
2018-12-08T00:20:08.936Z,1.07
2018-12-08T00:22:34.905Z,0.77
2018-12-08T00:25:01.179Z,0.60
2018-12-08T00:27:27.151Z,1.17
2018-12-08T00:29:53.119Z,1.47
2018-12-08T00:32:19.098Z,0.90
2018-12-08T00:34:45.079Z,0.50
2018-12-08T00:37:11.073Z,0.80
2018-12-08T00:39:37.771Z,1.20
2018-12-08T00:42:03.766Z,1.00
2018-12-08T00:44:29.732Z,0.83
2018-12-08T00:46:55.703Z,0.50
2018-12-08T00:49:21.669Z,1.00
2018-12-08T00:51:47.650Z,1.07
2018-12-08T00:54:13.629Z,1.13
2018-12-08T00:56:39.613Z,0.57
2018-12-08T00:59:05.565Z,1.00
2018-12-08T01:01:31.558Z,0.80
2018-12-08T01:03:57.521Z,0.70
2018-12-08T01:06:24.241Z,1.33
2018-12-08T01:08:50.248Z,1.00
2018-12-08T01:11:16.236Z,1.10
2018-12-08T01:13:42.219Z,0.87
2018-12-08T01:16:08.195Z,1.17
2018-12-08T01:18:34.173Z,0.60
2018-12-08T01:21:00.119Z,0.73
2018-12-08T01:23:26.853Z,0.57
2018-12-08T01:25:53.548Z,0.97
2018-12-08T01:28:19.562Z,0.70
2018-12-08T01:30:45.510Z,0.67
2018-12-08T01:33:11.488Z,0.50
2018-12-08T01:35:37.470Z,1.00
2018-12-08T01:38:03.444Z,0.80
2018-12-08T01:40:29.392Z,0.70
2018-12-08T01:42:55.359Z,1.13
2018-12-08T01:45:22.104Z,0.90
2018-12-08T01:47:48.069Z,0.80
2018-12-08T01:50:14.048Z,0.80
2018-12-08T01:52:40.734Z,1.03
2018-12-08T01:55:06.720Z,0.67
2018-12-08T01:57:32.700Z,0.70
2018-12-08T01:59:58.684Z,0.50
2018-12-08T02:02:24.660Z,0.80
2018-12-08T02:04:50.621Z,0.60
2018-12-08T02:07:16.591Z,0.87
2018-12-08T02:09:42.587Z,0.80
2018-12-08T02:12:08.535Z,1.43
2018-12-08T02:14:34.520Z,0.50
2018-12-08T02:17:00.496Z,0.63
2018-12-08T02:19:27.298Z,0.67
2018-12-08T02:21:53.270Z,0.77
2018-12-08T02:24:19.272Z,0.50
2018-12-08T02:26:46.002Z,0.70
2018-12-08T02:29:11.974Z,0.77
2018-12-08T02:31:37.963Z,0.73
2018-12-08T02:34:04.672Z,0.60
2018-12-08T02:36:30.650Z,0.60
2018-12-08T02:38:56.686Z,0.90
2018-12-08T02:41:22.691Z,1.10
2018-12-08T02:43:48.673Z,0.80
2018-12-08T02:46:16.538Z,0.77
2018-12-08T02:48:40.660Z,0.70
2018-12-08T02:51:07.386Z,0.77
2018-12-08T02:53:34.088Z,0.83
2018-12-08T02:56:00.069Z,0.93
2018-12-08T02:58:26.049Z,0.80
2018-12-08T03:00:52.039Z,0.60
2018-12-08T03:03:18.008Z,0.80
2018-12-08T03:05:43.959Z,0.83
2018-12-08T03:08:10.681Z,0.90
2018-12-08T03:10:37.377Z,0.60
2018-12-08T03:13:03.352Z,1.17
2018-12-08T03:15:30.055Z,0.67
2018-12-08T03:17:56.041Z,0.73
2018-12-08T03:20:21.993Z,0.70
2018-12-08T03:22:47.984Z,1.27
2018-12-08T03:25:13.951Z,0.73
2018-12-08T03:27:39.930Z,0.87
2018-12-08T03:30:05.902Z,1.40
2018-12-08T03:32:31.905Z,0.60
2018-12-08T03:34:57.872Z,0.50
2018-12-08T03:37:24.604Z,1.00
2018-12-08T03:39:51.488Z,0.90
2018-12-08T03:42:17.395Z,0.90
2018-12-08T03:44:43.380Z,1.00
2018-12-08T03:47:10.102Z,0.70
2018-12-08T03:49:36.109Z,0.87
2018-12-08T03:52:02.083Z,0.90
2018-12-08T03:54:28.075Z,0.90
2018-12-08T03:56:54.041Z,1.33
2018-12-08T03:59:20.026Z,0.70
2018-12-08T04:01:45.999Z,1.10
2018-12-08T04:04:11.982Z,0.50
2018-12-08T04:06:37.927Z,1.17
2018-12-08T04:09:04.659Z,1.10
2018-12-08T04:11:31.346Z,0.67
2018-12-08T04:13:57.334Z,0.90
2018-12-08T04:16:23.285Z,0.70
2018-12-08T04:18:49.304Z,1.03
2018-12-08T04:21:15.284Z,0.97
2018-12-08T04:23:41.986Z,0.67
2018-12-08T04:26:07.996Z,0.93
2018-12-08T04:28:33.979Z,0.70
2018-12-08T04:31:00.685Z,1.23
2018-12-08T04:33:26.640Z,1.27
2018-12-08T04:35:54.608Z,1.33
2018-12-08T04:38:19.386Z,1.30
2018-12-08T04:40:45.366Z,1.57
2018-12-08T04:43:11.327Z,1.50
2018-12-08T04:45:37.313Z,1.93
2018-12-08T04:48:03.279Z,1.90
2018-12-08T04:50:30.007Z,1.73
2018-12-08T04:52:55.945Z,1.70
2018-12-08T04:55:21.920Z,2.37
2018-12-08T04:57:47.883Z,2.27
2018-12-08T05:00:13.939Z,1.80
2018-12-08T05:02:39.903Z,1.93
2018-12-08T05:05:05.879Z,1.90
2018-12-08T05:07:31.880Z,2.17
2018-12-08T05:09:57.833Z,2.10
2018-12-08T05:12:23.831Z,1.80
2018-12-08T05:14:50.534Z,1.90
2018-12-08T05:17:16.537Z,1.43
2018-12-08T05:19:42.494Z,1.97
2018-12-08T05:22:08.488Z,2.20
2018-12-08T05:24:34.450Z,2.17
2018-12-08T05:27:00.449Z,1.50
2018-12-08T05:29:26.414Z,1.53
2018-12-08T05:31:53.145Z,1.70
2018-12-08T05:34:19.090Z,2.00
2018-12-08T05:36:45.815Z,1.17
2018-12-08T05:39:11.795Z,1.60
2018-12-08T05:41:37.777Z,1.40
2018-12-08T05:44:04.475Z,1.60
2018-12-08T05:46:30.529Z,1.73
2018-12-08T05:48:56.470Z,1.50
2018-12-08T05:51:22.431Z,1.10
2018-12-08T05:53:49.044Z,1.50
2018-12-08T05:56:15.010Z,1.90
2018-12-08T05:58:41.752Z,1.83
2018-12-08T06:01:07.734Z,1.83
2018-12-08T06:03:34.496Z,1.70
2018-12-08T06:06:00.495Z,1.43
2018-12-08T06:08:26.472Z,2.03
2018-12-08T06:10:53.280Z,2.07
2018-12-08T06:13:19.266Z,1.50
2018-12-08T06:15:45.244Z,2.10
2018-12-08T06:18:11.254Z,1.53
2018-12-08T06:20:37.257Z,1.80
2018-12-08T06:23:03.192Z,1.93
2018-12-08T06:25:29.167Z,1.83
2018-12-08T06:27:55.150Z,1.60
2018-12-08T06:30:21.120Z,1.40
2018-12-08T06:32:47.762Z,1.57
2018-12-08T06:35:13.703Z,1.90
2018-12-08T06:37:39.678Z,1.40
2018-12-08T06:40:06.394Z,1.57
2018-12-08T06:42:32.395Z,1.20
2018-12-08T06:44:58.341Z,1.17
2018-12-08T06:47:24.348Z,1.60
2018-12-08T06:49:50.317Z,1.20
2018-12-08T06:52:17.049Z,1.20
2018-12-08T06:54:43.761Z,1.37
2018-12-08T06:57:09.752Z,1.20
2018-12-08T06:59:35.712Z,1.30
2018-12-08T07:02:01.712Z,1.00
2018-12-08T07:04:27.676Z,1.67
2018-12-08T07:06:53.804Z,1.77
2018-12-08T07:09:19.777Z,1.60
2018-12-08T07:11:46.466Z,1.53
2018-12-08T07:14:12.441Z,1.40
2018-12-08T07:16:38.419Z,1.20
2018-12-08T07:19:05.150Z,1.67
2018-12-08T07:21:31.874Z,1.53
2018-12-08T07:23:57.877Z,1.80
2018-12-08T07:26:23.867Z,1.60
2018-12-08T07:28:49.870Z,1.43
2018-12-08T07:31:16.575Z,1.73
2018-12-08T07:33:42.574Z,1.57
2018-12-08T07:36:08.540Z,1.87
2018-12-08T07:38:34.535Z,1.83
2018-12-08T07:41:00.526Z,1.70
2018-12-08T07:43:26.513Z,1.50
2018-12-08T07:45:53.231Z,1.60
2018-12-08T07:48:19.213Z,1.53
2018-12-08T07:50:45.179Z,1.60
2018-12-08T07:53:11.186Z,1.33
2018-12-08T07:55:37.176Z,1.70
2018-12-08T07:58:03.254Z,1.40
2018-12-08T08:00:29.228Z,1.20
2018-12-08T08:02:55.214Z,1.60
2018-12-08T08:05:21.950Z,1.50
2018-12-08T08:07:47.920Z,1.27
2018-12-08T08:10:13.924Z,1.57
2018-12-08T08:12:39.886Z,2.00
2018-12-08T08:15:05.893Z,1.70
2018-12-08T08:17:31.842Z,1.93
2018-12-08T08:19:57.823Z,1.87
2018-12-08T08:22:23.778Z,1.73
2018-12-08T08:24:49.762Z,2.20
2018-12-08T08:27:16.464Z,1.97
2018-12-08T08:29:42.451Z,1.97
2018-12-08T08:32:08.390Z,1.63
2018-12-08T08:34:34.403Z,1.73
2018-12-08T08:37:00.377Z,1.43
2018-12-08T08:39:26.350Z,1.70
2018-12-08T08:41:52.365Z,1.77
2018-12-08T08:44:18.334Z,1.63
2018-12-08T08:46:44.318Z,1.50
2018-12-08T08:49:10.305Z,2.00
2018-12-08T08:51:37.029Z,2.20
2018-12-08T08:54:03.763Z,2.23
2018-12-08T08:56:29.743Z,2.07
2018-12-08T08:58:55.735Z,1.57
2018-12-08T09:01:22.457Z,2.10
2018-12-08T09:03:48.420Z,0.80
2018-12-08T09:06:14.412Z,1.10
2018-12-08T09:08:41.886Z,0.80
2018-12-08T09:11:08.631Z,1.23
2018-12-08T09:13:34.614Z,1.00
2018-12-08T09:16:00.587Z,0.73
2018-12-08T09:18:27.231Z,0.77
2018-12-08T09:20:53.213Z,0.93
2018-12-08T09:23:19.168Z,1.10
2018-12-08T09:25:45.140Z,1.00
2018-12-08T09:28:11.127Z,1.07
2018-12-08T09:30:37.119Z,0.63
2018-12-08T09:33:03.116Z,1.17
2018-12-08T09:35:29.831Z,0.90
2018-12-08T09:37:55.838Z,0.87
2018-12-08T09:40:21.829Z,1.37
2018-12-08T09:42:47.828Z,0.80
2018-12-08T09:45:13.782Z,0.87
2018-12-08T09:47:39.778Z,1.20
2018-12-08T09:50:06.473Z,1.03
2018-12-08T09:52:32.481Z,1.20
2018-12-08T09:54:58.461Z,1.10
2018-12-08T09:57:25.194Z,1.43
2018-12-08T09:59:51.172Z,1.27
2018-12-08T10:02:17.245Z,1.00
2018-12-08T10:04:43.971Z,1.30
2018-12-08T10:07:09.953Z,1.07
2018-12-08T10:09:35.935Z,1.33
2018-12-08T10:12:02.653Z,1.37
2018-12-08T10:14:28.650Z,1.43
2018-12-08T10:16:54.747Z,1.53
2018-12-08T10:19:20.718Z,1.30
2018-12-08T10:21:46.672Z,1.03
2018-12-08T10:24:13.427Z,0.73
2018-12-08T10:26:39.396Z,1.23
2018-12-08T10:29:05.384Z,1.00
2018-12-08T10:31:31.367Z,1.20
2018-12-08T10:33:57.369Z,0.93
2018-12-08T10:36:23.353Z,1.77
2018-12-08T10:38:49.351Z,1.17
2018-12-08T10:41:16.050Z,1.60
2018-12-08T10:43:42.193Z,1.10
2018-12-08T10:46:08.211Z,1.27
2018-12-08T10:48:34.226Z,1.40
2018-12-08T10:51:00.208Z,1.33
2018-12-08T10:53:26.901Z,1.90
2018-12-08T10:55:52.908Z,1.20
2018-12-08T10:58:18.875Z,1.17
2018-12-08T11:00:45.603Z,0.83
2018-12-08T11:03:12.323Z,0.80
2018-12-08T11:05:38.318Z,1.30
2018-12-08T11:08:04.320Z,1.30
2018-12-08T11:10:30.304Z,1.00
2018-12-08T11:12:57.026Z,0.90
2018-12-08T11:15:23.049Z,1.07
2018-12-08T11:17:49.042Z,1.70
2018-12-08T11:20:15.056Z,1.30
2018-12-08T11:22:41.020Z,1.00
2018-12-08T11:25:06.992Z,1.10
2018-12-08T11:27:32.982Z,1.37
2018-12-08T11:29:58.948Z,1.40
2018-12-08T11:32:25.303Z,1.23
2018-12-08T11:34:51.274Z,1.30
2018-12-08T11:37:17.262Z,0.80
2018-12-08T11:39:43.221Z,0.90
2018-12-08T11:42:09.960Z,1.03
2018-12-08T11:44:36.693Z,1.20
2018-12-08T11:47:02.730Z,1.30
2018-12-08T11:49:29.436Z,1.33
2018-12-08T11:51:55.408Z,1.20
2018-12-08T11:54:21.390Z,1.90
2018-12-08T11:56:47.478Z,1.10
2018-12-08T11:59:13.433Z,1.50
2018-12-08T12:01:39.396Z,1.10
2018-12-08T12:04:05.421Z,1.57
2018-12-08T12:06:32.124Z,1.20
2018-12-08T12:08:58.112Z,1.37
2018-12-08T12:11:24.094Z,1.43
2018-12-08T12:13:50.829Z,1.47
2018-12-08T12:16:17.563Z,1.60
2018-12-08T12:18:43.558Z,0.97
2018-12-08T12:21:09.531Z,1.40
2018-12-08T12:23:36.260Z,1.20
2018-12-08T12:26:03.319Z,1.40
2018-12-08T12:28:30.039Z,1.13
2018-12-08T12:30:56.762Z,1.73
2018-12-08T12:33:23.152Z,0.87
2018-12-08T12:35:49.848Z,1.10
2018-12-08T12:38:15.797Z,1.20
2018-12-08T12:40:41.804Z,1.10
2018-12-08T12:43:08.503Z,1.73
2018-12-08T12:45:34.533Z,1.20
2018-12-08T12:48:00.529Z,1.27
2018-12-08T12:50:26.520Z,1.13
2018-12-08T12:52:53.231Z,1.57
2018-12-08T12:55:19.218Z,0.90
2018-12-08T12:57:45.212Z,1.43
2018-12-08T13:00:11.215Z,1.50
2018-12-08T13:02:37.972Z,1.20
2018-12-08T13:05:03.953Z,1.30
2018-12-08T13:07:30.680Z,1.20
2018-12-08T13:09:56.664Z,1.07
2018-12-08T13:12:23.426Z,1.03
2018-12-08T13:14:49.379Z,1.43
2018-12-08T13:17:15.413Z,1.13
2018-12-08T13:19:41.391Z,0.97
2018-12-08T13:22:07.421Z,1.33
2018-12-08T13:24:33.410Z,0.93
2018-12-08T13:27:00.233Z,1.00
2018-12-08T13:29:27.715Z,1.07
2018-12-08T13:31:52.992Z,1.20
2018-12-08T13:34:18.990Z,1.30
2018-12-08T13:36:44.969Z,1.00
2018-12-08T13:39:11.706Z,0.97
2018-12-08T13:41:38.423Z,1.57
2018-12-08T13:44:04.434Z,1.77
2018-12-08T13:46:30.398Z,1.00
2018-12-08T13:48:57.110Z,1.50
2018-12-08T13:51:23.107Z,1.20
2018-12-08T13:53:49.109Z,1.13
2018-12-08T13:56:15.128Z,1.80
2018-12-08T13:58:41.089Z,0.90
2018-12-08T14:01:07.110Z,1.13
2018-12-08T14:03:33.064Z,1.37
2018-12-08T14:05:59.807Z,1.40
2018-12-08T14:08:26.535Z,1.30
2018-12-08T14:10:52.522Z,1.37
2018-12-08T14:13:18.530Z,1.40
2018-12-08T14:15:44.542Z,1.30
2018-12-08T14:18:10.516Z,0.80
2018-12-08T14:20:36.595Z,1.37
2018-12-08T14:23:02.554Z,1.70
2018-12-08T14:25:29.282Z,1.60
2018-12-08T14:27:55.276Z,1.63
2018-12-08T14:30:21.235Z,1.10
2018-12-08T14:32:47.224Z,1.70
2018-12-08T14:35:13.203Z,0.87
2018-12-08T14:37:39.164Z,1.17
2018-12-08T14:40:05.156Z,1.77
2018-12-08T14:42:31.898Z,0.87
2018-12-08T14:44:57.898Z,1.13
2018-12-08T14:47:23.913Z,1.20
2018-12-08T14:49:49.878Z,0.97
2018-12-08T14:52:16.813Z,1.20
2018-12-08T14:54:43.539Z,1.67
2018-12-08T14:57:09.491Z,1.50
2018-12-08T14:59:36.224Z,1.53
2018-12-08T15:02:02.927Z,1.00
2018-12-08T15:04:29.723Z,1.33
2018-12-08T15:06:55.741Z,0.70
2018-12-08T15:09:22.461Z,0.90
2018-12-08T15:11:48.454Z,1.20
2018-12-08T15:14:14.457Z,1.10
2018-12-08T15:16:40.428Z,1.27
2018-12-08T15:19:06.414Z,1.77
2018-12-08T15:21:32.383Z,1.40
2018-12-08T15:23:58.396Z,1.17
2018-12-08T15:26:24.364Z,1.10
2018-12-08T15:28:51.100Z,1.30
2018-12-08T15:31:17.090Z,1.30
2018-12-08T15:33:43.089Z,1.37
2018-12-08T15:36:09.102Z,1.43
2018-12-08T15:38:35.094Z,0.80
2018-12-08T15:41:01.091Z,0.83
2018-12-08T15:43:27.805Z,1.00
2018-12-08T15:45:54.563Z,1.43
2018-12-08T15:48:21.270Z,0.80
2018-12-08T15:50:47.265Z,1.00
2018-12-08T15:53:13.261Z,1.23
2018-12-08T15:55:39.271Z,1.43
2018-12-08T15:58:05.977Z,1.03
2018-12-08T16:00:31.964Z,1.10
2018-12-08T16:02:57.973Z,1.20
2018-12-08T16:05:23.980Z,1.10
2018-12-08T16:07:50.699Z,0.90
2018-12-08T16:10:16.679Z,0.93
2018-12-08T16:12:42.669Z,1.40
2018-12-08T16:15:09.368Z,1.20
2018-12-08T16:17:35.347Z,1.20
2018-12-08T16:20:01.336Z,0.90
2018-12-08T16:22:27.327Z,0.80
2018-12-08T16:24:53.316Z,1.47
2018-12-08T16:27:19.385Z,2.50
2018-12-08T16:29:46.172Z,1.30
2018-12-08T16:32:12.178Z,1.13
2018-12-08T16:34:38.136Z,1.17
2018-12-08T16:37:04.099Z,1.13
2018-12-08T16:39:30.071Z,0.97
2018-12-08T16:41:56.036Z,1.10
2018-12-08T16:44:22.035Z,1.07
2018-12-08T16:46:47.997Z,1.03
2018-12-08T16:49:13.990Z,1.03
2018-12-08T16:51:39.946Z,1.37
2018-12-08T16:54:05.925Z,1.50
2018-12-08T16:56:31.904Z,1.20
2018-12-08T16:58:57.900Z,1.47
2018-12-08T17:01:23.864Z,1.20
2018-12-08T17:03:49.847Z,1.17
2018-12-08T17:06:15.843Z,1.63
2018-12-08T17:08:41.814Z,1.07
2018-12-08T17:11:07.808Z,1.30
2018-12-08T17:13:33.763Z,1.33
2018-12-08T17:15:59.766Z,1.73
2018-12-08T17:18:25.737Z,1.20
2018-12-08T17:20:51.726Z,1.23
2018-12-08T17:23:17.686Z,1.30
2018-12-08T17:25:43.679Z,1.90
2018-12-08T17:28:10.405Z,1.37
2018-12-08T17:30:36.389Z,1.63
2018-12-08T17:33:02.397Z,1.67
2018-12-08T17:35:28.400Z,1.10
2018-12-08T17:37:55.110Z,1.77
2018-12-08T17:40:21.127Z,1.70
2018-12-08T17:42:47.111Z,1.10
2018-12-08T17:45:13.446Z,1.17
2018-12-08T17:47:39.429Z,1.40
2018-12-08T17:50:06.226Z,1.60
2018-12-08T17:52:32.211Z,2.20
2018-12-08T17:54:58.910Z,1.60
2018-12-08T17:57:24.921Z,1.40
2018-12-08T17:59:50.908Z,1.33
2018-12-08T18:02:17.651Z,1.03
2018-12-08T18:04:43.613Z,1.57
2018-12-08T18:07:09.630Z,1.50
2018-12-08T18:09:35.638Z,1.53
2018-12-08T18:12:01.723Z,1.30
2018-12-08T18:14:27.786Z,1.70
2018-12-08T18:16:53.789Z,1.50
2018-12-08T18:19:19.789Z,1.37
2018-12-08T18:21:46.018Z,1.50
2018-12-08T18:24:12.694Z,2.47
2018-12-08T18:26:38.627Z,1.50
2018-12-08T18:29:04.624Z,1.83
2018-12-08T18:31:30.588Z,2.60
2018-12-08T18:33:56.570Z,1.43
2018-12-08T18:36:22.548Z,2.13
2018-12-08T18:38:48.537Z,3.33
2018-12-08T18:41:14.518Z,4.57
2018-12-08T18:43:41.289Z,4.80
2018-12-08T18:46:07.283Z,5.33
2018-12-08T18:48:33.347Z,3.63
2018-12-08T18:50:59.393Z,2.37
2018-12-08T18:53:25.349Z,1.60
2018-12-08T18:55:52.144Z,1.50
2018-12-08T18:58:18.120Z,1.30
2018-12-08T19:00:44.876Z,1.33
2018-12-08T19:03:10.838Z,2.07
2018-12-08T19:05:36.840Z,1.20
2018-12-08T19:08:02.824Z,1.30
2018-12-08T19:10:28.820Z,1.50
2018-12-08T19:12:54.796Z,1.70
2018-12-08T19:15:21.506Z,2.13
2018-12-08T19:17:48.281Z,2.00
2018-12-08T19:20:14.246Z,1.80
2018-12-08T19:22:40.236Z,1.53
2018-12-08T19:25:06.227Z,1.87
2018-12-08T19:27:32.930Z,1.53
2018-12-08T19:29:58.937Z,1.97
2018-12-08T19:32:24.917Z,1.97
2018-12-08T19:34:51.651Z,1.80
2018-12-08T19:37:17.616Z,1.33
2018-12-08T19:39:43.628Z,1.83
2018-12-08T19:42:09.587Z,1.20
2018-12-08T19:44:35.583Z,1.70
2018-12-08T19:47:01.585Z,1.73
2018-12-08T19:49:27.660Z,1.90
2018-12-08T19:51:53.716Z,1.67
2018-12-08T19:54:20.523Z,1.90
2018-12-08T19:56:46.531Z,1.20
2018-12-08T19:59:12.511Z,2.27
2018-12-08T20:01:39.242Z,1.43
2018-12-08T20:04:05.965Z,1.80
2018-12-08T20:06:31.963Z,1.17
2018-12-08T20:08:57.924Z,1.70
2018-12-08T20:11:24.677Z,1.27
2018-12-08T20:13:50.696Z,1.43
2018-12-08T20:16:17.442Z,1.50
2018-12-08T20:18:44.165Z,1.67
2018-12-08T20:21:10.167Z,1.50
2018-12-08T20:23:36.166Z,1.60
2018-12-08T20:26:02.174Z,1.60
2018-12-08T20:28:28.146Z,1.67
2018-12-08T20:30:54.137Z,1.60
2018-12-08T20:33:20.110Z,2.07
2018-12-08T20:35:46.851Z,2.20
2018-12-08T20:38:13.579Z,2.57
2018-12-08T20:40:39.581Z,2.30
2018-12-08T20:43:05.543Z,2.37
2018-12-08T20:45:32.268Z,2.40
2018-12-08T20:47:59.026Z,2.10
2018-12-08T20:50:25.743Z,2.23
2018-12-08T20:52:51.746Z,2.30
2018-12-08T20:55:17.723Z,2.50
2018-12-08T20:57:44.445Z,2.80
2018-12-08T21:00:17.327Z,2.47
2018-12-08T21:02:44.069Z,2.70
2018-12-08T21:05:10.017Z,2.00
2018-12-08T21:07:36.021Z,2.47
2018-12-08T21:10:02.747Z,2.40
2018-12-08T21:12:28.732Z,2.30
2018-12-08T21:14:54.704Z,1.87
2018-12-08T21:17:21.439Z,2.60
2018-12-08T21:19:48.188Z,2.40
2018-12-08T21:22:14.901Z,2.70
2018-12-08T21:24:40.879Z,2.53
2018-12-08T21:27:06.819Z,2.73
2018-12-08T21:29:32.854Z,3.30
2018-12-08T21:31:58.817Z,2.07
2018-12-08T21:34:24.825Z,2.77
2018-12-08T21:36:50.789Z,2.47
2018-12-08T21:39:16.801Z,2.50
2018-12-08T21:41:43.552Z,2.40
2018-12-08T21:44:09.538Z,2.33
2018-12-08T21:46:35.488Z,1.93
2018-12-08T21:49:02.189Z,2.10
2018-12-08T21:51:28.945Z,1.73
2018-12-08T21:53:55.670Z,2.23
2018-12-08T21:56:22.419Z,2.60
2018-12-08T21:58:48.408Z,3.20
2018-12-08T22:01:14.385Z,2.70
2018-12-08T22:03:40.354Z,2.97
2018-12-08T22:06:06.332Z,3.40
2018-12-08T22:08:33.049Z,3.50
2018-12-08T22:10:59.056Z,3.43
2018-12-08T22:13:25.067Z,3.10
2018-12-08T22:15:51.082Z,2.10
2018-12-08T22:18:17.103Z,2.20
2018-12-08T22:20:43.263Z,2.77
2018-12-08T22:23:09.228Z,2.27
2018-12-08T22:25:36.102Z,1.73
2018-12-08T22:28:02.086Z,1.83
2018-12-08T22:30:28.831Z,1.13
2018-12-08T22:32:54.876Z,0.60
2018-12-08T22:35:20.880Z,0.30
2018-12-08T22:37:46.868Z,0.40
2018-12-08T22:40:12.838Z,0.23
2018-12-08T22:42:38.862Z,0.47
2018-12-08T22:45:04.887Z,0.27
2018-12-08T22:47:30.883Z,0.23
2018-12-08T22:49:57.603Z,0.20
2018-12-08T22:52:23.618Z,0.20
2018-12-08T22:54:49.673Z,0.20
2018-12-08T22:57:15.652Z,0.20
2018-12-08T22:59:41.631Z,0.20
2018-12-08T23:02:07.666Z,0.30
2018-12-08T23:04:33.648Z,0.40
2018-12-08T23:06:59.611Z,0.30
2018-12-08T23:09:25.598Z,0.20
2018-12-08T23:11:51.546Z,0.27
2018-12-08T23:14:17.559Z,0.40
2018-12-08T23:16:44.273Z,0.20
2018-12-08T23:19:10.276Z,0.17
2018-12-08T23:21:36.233Z,0.50
2018-12-08T23:24:02.972Z,0.60
2018-12-08T23:26:28.973Z,0.40
2018-12-08T23:28:54.987Z,0.50
2018-12-08T23:31:20.919Z,0.80
2018-12-08T23:33:46.924Z,1.30
2018-12-08T23:36:12.941Z,1.00
2018-12-08T23:38:38.971Z,0.60
2018-12-08T23:41:04.964Z,1.03
2018-12-08T23:43:30.965Z,1.20
2018-12-08T23:45:57.700Z,1.23
2018-12-08T23:48:23.656Z,1.43
2018-12-08T23:50:49.677Z,0.60
2018-12-08T23:53:15.642Z,0.90
2018-12-08T23:55:41.616Z,0.97
2018-12-08T23:58:07.620Z,1.10
